Time,TemperatureF,DewpointF,PressureIn,WindDirection,WindDirectionDegrees,WindSpeedMPH,WindSpeedGustMPH,Humidity,HourlyPrecipIn,Conditions,Clouds,dailyrainin,SoftwareType,DateUTC
2013-05-09 00:00:00,58.8,52.6,29.78,SSE,158,1.1,1.4,80,0.00,RA,,0.00,WeatherDisplay:10.37,2013-05-09 04:00:00,
2013-05-09 00:01:00,58.8,52.6,29.78,West,270,2.3,2.3,80,0.00,-RA,,0.00,WeatherDisplay:10.37,2013-05-09 04:01:00,
2013-05-09 00:02:00,58.8,52.6,29.78,SW,225,3.5,3.6,80,0.00,-RA,,0.00,WeatherDisplay:10.37,2013-05-09 04:02:00,
2013-05-09 00:03:00,58.8,52.6,29.78,SW,225,3.5,3.5,80,0.00,-RA,,0.00,WeatherDisplay:10.37,2013-05-09 04:03:00,
2013-05-09 00:05:00,58.8,52.6,29.78,West,270,4.2,4.2,80,0.00,-RA,,0.00,WeatherDisplay:10.37,2013-05-09 04:05:00,
2013-05-09 00:10:00,58.6,53.8,29.78,SSW,202,5.8,5.8,84,0.00,-RA,,0.00,WeatherDisplay:10.37,2013-05-09 04:10:00,
2013-05-09 00:15:00,57.9,54.1,29.78,SW,225,4.7,4.7,87,0.00,-RA,,0.00,WeatherDisplay:10.37,2013-05-09 04:15:00,
2013-05-09 00:20:00,57.6,54.1,29.78,WSW,248,4.6,4.6,88,0.00,-RA,,0.00,WeatherDisplay:10.37,2013-05-09 04:20:00,
2013-05-09 00:25:00,57.0,54.7,29.77,WSW,248,3.5,3.5,92,0.00,-RA,,0.00,WeatherDisplay:10.37,2013-05-09 04:25:00,
2013-05-09 00:30:00,56.7,54.7,29.77,WSW,248,3.5,3.5,93,0.00,-RA,,0.00,WeatherDisplay:10.37,2013-05-09 04:30:00,
2013-05-09 00:35:00,56.7,54.7,29.77,SW,225,3.5,3.5,93,0.00,-RA,,0.00,WeatherDisplay:10.37,2013-05-09 04:35:00,
2013-05-09 00:40:00,56.7,55.0,29.77,WSW,248,2.7,2.7,94,0.00,-RA,,0.00,WeatherDisplay:10.37,2013-05-09 04:40:00,
2013-05-09 00:45:00,56.7,55.0,29.77,WSW,248,2.2,2.2,94,0.00,-RA,,0.00,WeatherDisplay:10.37,2013-05-09 04:45:00,
2013-05-09 00:50:00,56.5,54.8,29.77,West,270,3.2,3.2,94,0.00,-RA,,0.00,WeatherDisplay:10.37,2013-05-09 04:50:00,
2013-05-09 00:55:00,56.5,55.1,29.77,West,270,2.3,2.3,95,0.00,-RA,,0.00,WeatherDisplay:10.37,2013-05-09 04:55:00,
2013-05-09 01:00:00,56.5,55.1,29.77,South,180,0.0,0.0,95,0.00,-RA,,0.00,WeatherDisplay:10.37,2013-05-09 05:00:00,
2013-05-09 01:05:00,56.5,54.5,29.77,SSW,202,0.0,0.0,93,0.00,-RA,,0.00,WeatherDisplay:10.37,2013-05-09 05:05:00,
2013-05-09 01:10:00,56.5,54.5,29.77,WSW,248,0.0,0.0,93,0.00,-RA,,0.00,WeatherDisplay:10.37,2013-05-09 05:10:00,
2013-05-09 01:15:00,56.5,55.7,29.77,SW,225,0.0,0.0,97,0.00,-RA,,0.00,WeatherDisplay:10.37,2013-05-09 05:15:00,
2013-05-09 01:20:00,56.1,55.5,29.77,SW,225,2.3,2.3,98,0.00,-RA,,0.00,WeatherDisplay:10.37,2013-05-09 05:20:00,
2013-05-09 01:25:00,55.9,55.6,29.77,West,270,2.3,2.5,99,0.00,-RA,,0.00,WeatherDisplay:10.37,2013-05-09 05:25:00,
2013-05-09 01:30:00,55.8,55.5,29.77,SW,225,3.5,3.5,99,0.00,-RA,,0.00,WeatherDisplay:10.37,2013-05-09 05:30:00,
2013-05-09 01:35:00,55.6,55.3,29.77,SW,225,3.7,3.7,99,0.00,OVC,,0.00,WeatherDisplay:10.37,2013-05-09 05:35:00,
2013-05-09 01:40:00,55.6,55.3,29.77,SW,225,4.7,4.7,99,0.00,OVC,,0.00,WeatherDisplay:10.37,2013-05-09 05:40:00,
2013-05-09 01:45:00,55.6,55.0,29.77,SW,225,5.8,5.8,98,0.00,OVC,,0.00,WeatherDisplay:10.37,2013-05-09 05:45:00,
2013-05-09 01:50:00,55.8,55.0,29.76,SW,225,4.6,4.6,97,0.00,OVC,,0.00,WeatherDisplay:10.37,2013-05-09 05:50:00,
2013-05-09 01:55:00,55.8,55.0,29.76,SW,225,3.5,3.5,97,0.00,OVC,,0.00,WeatherDisplay:10.37,2013-05-09 05:55:00,
2013-05-09 02:00:00,55.6,55.0,29.76,WSW,248,4.6,4.6,98,0.00,OVC,,0.00,WeatherDisplay:10.37,2013-05-09 06:00:00,
2013-05-09 02:05:00,55.4,55.1,29.76,SW,225,4.6,4.6,99,0.00,OVC,,0.00,WeatherDisplay:10.37,2013-05-09 06:05:00,
2013-05-09 02:10:00,55.4,55.1,29.76,SW,225,3.7,3.7,99,0.00,OVC,,0.00,WeatherDisplay:10.37,2013-05-09 06:10:00,
2013-05-09 02:15:00,55.4,54.8,29.75,West,270,4.7,4.7,98,0.00,OVC,,0.00,WeatherDisplay:10.37,2013-05-09 06:15:00,
2013-05-09 02:20:00,55.4,55.1,29.75,WSW,248,4.6,4.6,99,0.00,OVC,,0.00,WeatherDisplay:10.37,2013-05-09 06:20:00,
2013-05-09 02:25:00,55.4,55.1,29.75,SW,225,3.5,3.5,99,0.00,OVC,,0.00,WeatherDisplay:10.37,2013-05-09 06:25:00,
2013-05-09 02:30:00,55.2,54.9,29.75,West,270,2.3,2.3,99,0.00,OVC,,0.00,WeatherDisplay:10.37,2013-05-09 06:30:00,
2013-05-09 02:35:00,55.0,54.7,29.75,WSW,248,0.0,0.0,99,0.00,OVC,,0.00,WeatherDisplay:10.37,2013-05-09 06:35:00,
2013-05-09 02:40:00,54.9,54.6,29.75,ESE,112,0.0,0.0,99,0.00,OVC,,0.00,WeatherDisplay:10.37,2013-05-09 06:40:00,
2013-05-09 02:45:00,54.9,54.6,29.75,SSE,158,0.0,0.0,99,0.00,OVC,,0.00,WeatherDisplay:10.37,2013-05-09 06:45:00,
2013-05-09 02:50:00,54.7,54.4,29.75,WSW,248,0.0,0.0,99,0.00,OVC,,0.00,WeatherDisplay:10.37,2013-05-09 06:50:00,
2013-05-09 02:55:00,54.5,54.2,29.75,SW,225,0.0,0.0,99,0.00,OVC,,0.00,WeatherDisplay:10.37,2013-05-09 06:55:00,
2013-05-09 03:00:00,54.3,54.0,29.75,South,180,0.0,0.0,99,0.00,OVC,,0.00,WeatherDisplay:10.37,2013-05-09 07:00:00,
2013-05-09 03:05:00,54.3,54.0,29.75,SSW,202,0.0,0.0,99,0.00,OVC,,0.00,WeatherDisplay:10.37,2013-05-09 07:05:00,
2013-05-09 03:10:00,54.7,54.4,29.75,ESE,112,0.0,0.0,99,0.00,OVC,,0.00,WeatherDisplay:10.37,2013-05-09 07:10:00,
2013-05-09 03:15:00,54.5,54.2,29.75,SW,225,0.0,0.0,99,0.00,OVC,,0.00,WeatherDisplay:10.37,2013-05-09 07:15:00,
2013-05-09 03:20:00,54.3,54.0,29.75,SW,225,0.0,0.0,99,0.00,OVC,,0.00,WeatherDisplay:10.37,2013-05-09 07:20:00,
2013-05-09 03:25:00,54.1,53.8,29.75,SW,225,0.0,0.0,99,0.00,OVC,,0.00,WeatherDisplay:10.37,2013-05-09 07:25:00,
2013-05-09 03:30:00,54.0,53.7,29.74,SW,225,0.0,0.0,99,0.00,OVC,,0.00,WeatherDisplay:10.37,2013-05-09 07:30:00,
2013-05-09 03:35:00,53.8,53.5,29.74,East,90,0.0,0.0,99,0.00,OVC,,0.00,WeatherDisplay:10.37,2013-05-09 07:35:00,
2013-05-09 03:40:00,53.8,53.5,29.75,SE,135,0.0,0.0,99,0.00,OVC,,0.00,WeatherDisplay:10.37,2013-05-09 07:40:00,
2013-05-09 03:45:00,53.8,53.5,29.75,ESE,112,1.1,1.6,99,0.00,OVC,,0.00,WeatherDisplay:10.37,2013-05-09 07:45:00,
2013-05-09 03:50:00,53.6,53.3,29.74,SSW,202,2.2,2.2,99,0.00,OVC,,0.00,WeatherDisplay:10.37,2013-05-09 07:50:00,
2013-05-09 03:55:00,53.4,53.1,29.74,WNW,292,1.7,1.7,99,0.00,OVC,,0.00,WeatherDisplay:10.37,2013-05-09 07:55:00,
2013-05-09 04:00:00,53.4,53.1,29.74,WSW,248,2.3,2.3,99,0.00,OVC,,0.00,WeatherDisplay:10.37,2013-05-09 08:00:00,
2013-05-09 04:05:00,53.1,52.8,29.75,WSW,248,0.0,0.0,99,0.00,FEW,,0.00,WeatherDisplay:10.37,2013-05-09 08:05:00,
2013-05-09 04:10:00,52.9,52.6,29.75,SW,225,1.1,1.1,99,0.00,FEW,,0.00,WeatherDisplay:10.37,2013-05-09 08:10:00,
2013-05-09 04:15:00,53.1,52.8,29.75,East,90,0.0,0.0,99,0.00,FEW,,0.00,WeatherDisplay:10.37,2013-05-09 08:15:00,
2013-05-09 04:20:00,52.9,52.6,29.75,WSW,248,2.3,2.3,99,0.00,FEW,,0.00,WeatherDisplay:10.37,2013-05-09 08:20:00,
2013-05-09 04:25:00,52.7,52.4,29.75,WSW,248,2.7,2.7,99,0.00,FEW,,0.00,WeatherDisplay:10.37,2013-05-09 08:25:00,
2013-05-09 04:30:00,52.5,52.2,29.75,WSW,248,2.3,2.3,99,0.00,FEW,,0.00,WeatherDisplay:10.37,2013-05-09 08:30:00,
2013-05-09 04:35:00,52.9,52.6,29.75,SW,225,2.3,2.3,99,0.00,FEW,,0.00,WeatherDisplay:10.37,2013-05-09 08:35:00,
2013-05-09 04:40:00,52.9,52.6,29.75,WSW,248,1.1,1.1,99,0.00,FEW,,0.00,WeatherDisplay:10.37,2013-05-09 08:40:00,
2013-05-09 04:45:00,52.7,52.4,29.75,SW,225,2.3,2.5,99,0.00,FEW,,0.00,WeatherDisplay:10.37,2013-05-09 08:45:00,
2013-05-09 04:50:00,52.7,52.4,29.75,SW,225,2.3,2.3,99,0.00,FEW,,0.00,WeatherDisplay:10.37,2013-05-09 08:50:00,
2013-05-09 04:55:00,52.3,52.0,29.75,SW,225,2.3,2.3,99,0.00,FEW,,0.00,WeatherDisplay:10.37,2013-05-09 08:55:00,
2013-05-09 05:00:00,52.5,52.2,29.75,WSW,248,2.3,2.3,99,0.00,FEW,,0.00,WeatherDisplay:10.37,2013-05-09 09:00:00,
2013-05-09 05:05:00,52.5,52.2,29.75,SW,225,2.3,2.3,99,0.00,CLR,,0.00,WeatherDisplay:10.37,2013-05-09 09:05:00,
2013-05-09 05:10:00,52.5,52.2,29.75,SW,225,2.3,2.3,99,0.00,CLR,,0.00,WeatherDisplay:10.37,2013-05-09 09:10:00,
2013-05-09 05:15:00,52.5,52.2,29.75,SSW,202,3.5,3.5,99,0.00,CLR,,0.00,WeatherDisplay:10.37,2013-05-09 09:15:00,
2013-05-09 05:20:00,52.3,52.0,29.75,WSW,248,0.0,0.0,99,0.00,CLR,,0.00,WeatherDisplay:10.37,2013-05-09 09:20:00,
2013-05-09 05:25:00,52.2,51.9,29.75,SSW,202,2.3,2.3,99,0.00,CLR,,0.00,WeatherDisplay:10.37,2013-05-09 09:25:00,
2013-05-09 05:30:00,52.0,51.7,29.75,SW,225,0.0,0.0,99,0.00,CLR,,0.00,WeatherDisplay:10.37,2013-05-09 09:30:00,
2013-05-09 05:35:00,52.0,51.7,29.75,SW,225,0.0,0.0,99,0.00,CLR,,0.00,WeatherDisplay:10.37,2013-05-09 09:35:00,
2013-05-09 05:40:00,51.6,51.3,29.75,WSW,248,0.0,0.0,99,0.00,CLR,,0.00,WeatherDisplay:10.37,2013-05-09 09:40:00,
2013-05-09 05:45:00,51.4,51.1,29.75,WSW,248,2.3,2.3,99,0.00,CLR,,0.00,WeatherDisplay:10.37,2013-05-09 09:45:00,
2013-05-09 05:50:00,51.4,51.1,29.76,WSW,248,2.3,2.3,99,0.00,CLR,,0.00,WeatherDisplay:10.37,2013-05-09 09:50:00,
2013-05-09 05:55:00,51.3,51.0,29.76,WSW,248,2.7,2.7,99,0.00,CLR,,0.00,WeatherDisplay:10.37,2013-05-09 09:55:00,
2013-05-09 06:00:00,51.3,51.0,29.76,WSW,248,2.7,2.7,99,0.00,CLR,,0.00,WeatherDisplay:10.37,2013-05-09 10:00:00,
2013-05-09 06:05:00,51.4,51.1,29.76,SW,225,0.0,0.0,99,0.00,BKN,,0.00,WeatherDisplay:10.37,2013-05-09 10:05:00,
2013-05-09 06:10:00,51.8,51.5,29.76,SW,225,0.0,0.0,99,0.00,BKN,,0.00,WeatherDisplay:10.37,2013-05-09 10:10:00,
2013-05-09 06:15:00,51.8,51.5,29.77,WSW,248,0.0,0.0,99,0.00,BKN,,0.00,WeatherDisplay:10.37,2013-05-09 10:15:00,
2013-05-09 06:20:00,51.6,51.3,29.77,SW,225,0.0,0.0,99,0.00,BKN,,0.00,WeatherDisplay:10.37,2013-05-09 10:20:00,
2013-05-09 06:25:00,52.2,51.9,29.77,SW,225,0.0,0.0,99,0.00,BKN,,0.00,WeatherDisplay:10.37,2013-05-09 10:25:00,
2013-05-09 06:30:00,51.3,51.0,29.77,WSW,248,1.7,1.7,99,0.00,BKN,,0.00,WeatherDisplay:10.37,2013-05-09 10:30:00,
2013-05-09 06:35:00,51.1,50.8,29.77,WSW,248,2.3,2.3,99,0.00,BKN,,0.00,WeatherDisplay:10.37,2013-05-09 10:35:00,
2013-05-09 06:40:00,51.3,51.0,29.78,WSW,248,0.0,0.0,99,0.00,BKN,,0.00,WeatherDisplay:10.37,2013-05-09 10:40:00,
2013-05-09 06:45:00,52.3,52.0,29.78,SW,225,2.3,2.3,99,0.00,BKN,,0.00,WeatherDisplay:10.37,2013-05-09 10:45:00,
2013-05-09 06:50:00,52.5,52.2,29.77,WSW,248,3.5,3.5,99,0.00,BKN,,0.00,WeatherDisplay:10.37,2013-05-09 10:50:00,
2013-05-09 06:55:00,52.5,52.2,29.77,WSW,248,0.0,0.0,99,0.00,BKN,,0.00,WeatherDisplay:10.37,2013-05-09 10:55:00,
2013-05-09 07:00:00,54.0,53.7,29.77,SSW,202,0.0,0.0,99,0.00,BKN,,0.00,WeatherDisplay:10.37,2013-05-09 11:00:00,
2013-05-09 07:05:00,54.5,54.2,29.78,ESE,112,0.0,0.0,99,0.00,FEW,,0.00,WeatherDisplay:10.37,2013-05-09 11:05:00,
2013-05-09 07:10:00,54.5,54.2,29.78,SSW,202,0.0,0.0,99,0.00,FEW,,0.00,WeatherDisplay:10.37,2013-05-09 11:10:00,
2013-05-09 07:15:00,55.4,55.1,29.79,SSW,202,0.0,0.0,99,0.00,FEW,,0.00,WeatherDisplay:10.37,2013-05-09 11:15:00,
2013-05-09 07:20:00,56.1,55.8,29.79,SW,225,2.3,2.3,99,0.00,FEW,,0.00,WeatherDisplay:10.37,2013-05-09 11:20:00,
2013-05-09 07:25:00,57.2,56.4,29.79,SW,225,1.1,1.1,97,0.00,FEW,,0.00,WeatherDisplay:10.37,2013-05-09 11:25:00,
2013-05-09 07:30:00,58.8,56.5,29.79,SW,225,1.7,1.7,92,0.00,FEW,,0.00,WeatherDisplay:10.37,2013-05-09 11:30:00,
2013-05-09 07:35:00,58.6,56.3,29.79,SW,225,2.3,2.3,92,0.00,FEW,,0.00,WeatherDisplay:10.37,2013-05-09 11:35:00,
2013-05-09 07:40:00,59.7,57.1,29.80,SSW,202,2.3,2.3,91,0.00,FEW,,0.00,WeatherDisplay:10.37,2013-05-09 11:40:00,
2013-05-09 07:45:00,60.1,57.2,29.80,SW,225,3.5,3.7,90,0.00,FEW,,0.00,WeatherDisplay:10.37,2013-05-09 11:45:00,
2013-05-09 07:50:00,59.0,56.7,29.80,SW,225,3.7,3.7,92,0.00,FEW,,0.00,WeatherDisplay:10.37,2013-05-09 11:50:00,
2013-05-09 07:55:00,58.5,56.5,29.81,SW,225,4.6,4.6,93,0.00,FEW,,0.00,WeatherDisplay:10.37,2013-05-09 11:55:00,
2013-05-09 08:00:00,58.5,56.8,29.81,WSW,248,3.5,3.5,94,0.00,FEW,,0.00,WeatherDisplay:10.37,2013-05-09 12:00:00,
2013-05-09 08:05:00,58.6,56.9,29.81,SW,225,4.6,4.6,94,0.00,OVC,,0.00,WeatherDisplay:10.37,2013-05-09 12:05:00,
2013-05-09 08:10:00,58.6,56.9,29.81,SSW,202,4.6,4.6,94,0.00,OVC,,0.00,WeatherDisplay:10.37,2013-05-09 12:10:00,
2013-05-09 08:15:00,58.8,57.1,29.81,West,270,3.5,3.5,94,0.00,OVC,,0.00,WeatherDisplay:10.37,2013-05-09 12:15:00,
2013-05-09 08:20:00,59.0,57.3,29.81,WSW,248,3.5,3.5,94,0.00,OVC,,0.00,WeatherDisplay:10.37,2013-05-09 12:20:00,
2013-05-09 08:25:00,59.2,57.8,29.81,SSW,202,2.7,2.7,95,0.00,OVC,,0.00,WeatherDisplay:10.37,2013-05-09 12:25:00,
2013-05-09 08:30:00,59.2,58.1,29.82,SW,225,3.5,3.5,96,0.00,OVC,,0.00,WeatherDisplay:10.37,2013-05-09 12:30:00,
2013-05-09 08:35:00,58.8,57.7,29.82,SW,225,4.6,4.6,96,0.00,OVC,,0.00,WeatherDisplay:10.37,2013-05-09 12:35:00,
2013-05-09 08:40:00,58.8,57.7,29.82,WSW,248,3.5,3.5,96,0.00,OVC,,0.00,WeatherDisplay:10.37,2013-05-09 12:40:00,
2013-05-09 08:45:00,58.8,57.7,29.82,WSW,248,3.7,3.7,96,0.00,OVC,,0.00,WeatherDisplay:10.37,2013-05-09 12:45:00,
2013-05-09 08:50:00,59.0,58.2,29.82,SW,225,3.7,3.7,97,0.00,OVC,,0.00,WeatherDisplay:10.37,2013-05-09 12:50:00,
2013-05-09 08:55:00,58.8,58.0,29.82,WSW,248,4.6,4.6,97,0.00,OVC,,0.00,WeatherDisplay:10.37,2013-05-09 12:55:00,
2013-05-09 09:00:00,59.0,58.2,29.82,SW,225,2.3,2.3,97,0.00,OVC,,0.00,WeatherDisplay:10.37,2013-05-09 13:00:00,
2013-05-09 09:05:00,59.2,58.1,29.83,SW,225,3.5,3.5,96,0.00,OVC,,0.00,WeatherDisplay:10.37,2013-05-09 13:05:00,
2013-05-09 09:10:00,59.0,58.2,29.83,WSW,248,2.3,2.3,97,0.00,OVC,,0.00,WeatherDisplay:10.37,2013-05-09 13:10:00,
2013-05-09 09:15:00,59.2,58.1,29.83,SW,225,2.3,2.3,96,0.00,OVC,,0.00,WeatherDisplay:10.37,2013-05-09 13:15:00,
2013-05-09 09:20:00,59.7,58.6,29.83,WSW,248,3.5,3.5,96,0.00,OVC,,0.00,WeatherDisplay:10.37,2013-05-09 13:20:00,
2013-05-09 09:25:00,59.7,58.8,29.83,WSW,248,2.7,2.7,97,0.00,OVC,,0.00,WeatherDisplay:10.37,2013-05-09 13:25:00,
2013-05-09 09:30:00,59.9,59.0,29.83,WSW,248,3.5,3.5,97,0.00,OVC,,0.00,WeatherDisplay:10.37,2013-05-09 13:30:00,
2013-05-09 09:35:00,60.1,59.0,29.83,SW,225,3.2,3.2,96,0.01,RA,,0.01,WeatherDisplay:10.37,2013-05-09 13:35:00,
2013-05-09 09:40:00,60.6,59.2,29.83,SW,225,2.3,2.3,95,0.01,RA,,0.01,WeatherDisplay:10.37,2013-05-09 13:40:00,
2013-05-09 09:45:00,60.8,59.7,29.83,SSW,202,0.0,0.0,96,0.01,OVC,,0.01,WeatherDisplay:10.37,2013-05-09 13:45:00,
2013-05-09 09:50:00,61.0,59.9,29.83,South,180,1.7,1.7,96,0.01,OVC,,0.01,WeatherDisplay:10.37,2013-05-09 13:50:00,
2013-05-09 09:55:00,61.0,59.3,29.83,SSW,202,0.0,0.0,94,0.01,OVC,,0.01,WeatherDisplay:10.37,2013-05-09 13:55:00,
2013-05-09 10:00:00,60.6,59.2,29.83,SW,225,2.3,2.3,95,0.01,OVC,,0.01,WeatherDisplay:10.37,2013-05-09 14:00:00,
2013-05-09 10:05:00,60.6,59.5,29.83,WSW,248,3.5,3.5,96,0.01,OVC,,0.01,WeatherDisplay:10.37,2013-05-09 14:05:00,
2013-05-09 10:10:00,60.6,59.2,29.83,South,180,2.3,2.4,95,0.01,OVC,,0.01,WeatherDisplay:10.37,2013-05-09 14:10:00,
2013-05-09 10:15:00,61.2,60.3,29.83,SSW,202,3.5,3.5,97,0.01,OVC,,0.01,WeatherDisplay:10.37,2013-05-09 14:15:00,
2013-05-09 10:20:00,61.2,60.1,29.83,SW,225,3.5,3.5,96,0.01,OVC,,0.01,WeatherDisplay:10.37,2013-05-09 14:20:00,
2013-05-09 10:25:00,62.1,60.7,29.83,SW,225,2.7,2.7,95,0.01,OVC,,0.01,WeatherDisplay:10.37,2013-05-09 14:25:00,
2013-05-09 10:30:00,62.6,61.1,29.83,SSW,202,3.5,3.5,95,0.01,OVC,,0.01,WeatherDisplay:10.37,2013-05-09 14:30:00,
2013-05-09 10:35:00,61.5,59.5,29.83,WSW,248,4.7,4.7,93,0.00,OVC,,0.01,WeatherDisplay:10.37,2013-05-09 14:35:00,
2013-05-09 10:40:00,63.1,61.3,29.83,WSW,248,5.8,5.8,94,0.00,OVC,,0.01,WeatherDisplay:10.37,2013-05-09 14:40:00,
2013-05-09 10:45:00,62.4,60.7,29.83,SW,225,3.5,3.5,94,0.00,OVC,,0.01,WeatherDisplay:10.37,2013-05-09 14:45:00,
2013-05-09 10:50:00,65.5,63.1,29.83,SW,225,4.7,4.7,92,0.00,OVC,,0.01,WeatherDisplay:10.37,2013-05-09 14:50:00,
2013-05-09 10:55:00,62.6,59.3,29.83,West,270,8.8,8.8,89,0.00,OVC,,0.01,WeatherDisplay:10.37,2013-05-09 14:55:00,
2013-05-09 11:00:00,63.5,60.2,29.83,SW,225,7.8,7.8,89,0.00,OVC,,0.01,WeatherDisplay:10.37,2013-05-09 15:00:00,
2013-05-09 11:05:00,62.8,58.5,29.83,West,270,6.9,6.9,86,0.00,OVC,,0.01,WeatherDisplay:10.37,2013-05-09 15:05:00,
2013-05-09 11:10:00,62.8,57.9,29.83,West,270,6.9,6.9,84,0.00,OVC,,0.01,WeatherDisplay:10.37,2013-05-09 15:10:00,
2013-05-09 11:15:00,64.4,59.1,29.83,SW,225,5.8,5.8,83,0.00,OVC,,0.01,WeatherDisplay:10.37,2013-05-09 15:15:00,
2013-05-09 11:20:00,64.9,59.3,29.83,SW,225,5.8,5.8,82,0.00,OVC,,0.01,WeatherDisplay:10.37,2013-05-09 15:20:00,
2013-05-09 11:25:00,64.9,59.3,29.83,SW,225,3.5,3.5,82,0.00,OVC,,0.01,WeatherDisplay:10.37,2013-05-09 15:25:00,
2013-05-09 11:30:00,64.0,58.7,29.83,SW,225,6.9,6.9,83,0.00,OVC,,0.01,WeatherDisplay:10.37,2013-05-09 15:30:00,
2013-05-09 11:35:00,64.8,58.8,29.83,West,270,9.2,9.2,81,0.00,OVC,,0.01,WeatherDisplay:10.37,2013-05-09 15:35:00,
2013-05-09 11:40:00,67.1,59.6,29.84,WSW,248,4.2,4.2,77,0.00,OVC,,0.01,WeatherDisplay:10.37,2013-05-09 15:40:00,
2013-05-09 11:45:00,65.7,59.4,29.84,SW,225,8.1,8.1,80,0.00,OVC,,0.01,WeatherDisplay:10.37,2013-05-09 15:45:00,
2013-05-09 11:50:00,66.4,59.0,29.83,WSW,248,8.1,8.1,77,0.00,OVC,,0.01,WeatherDisplay:10.37,2013-05-09 15:50:00,
2013-05-09 11:55:00,65.7,59.0,29.83,WSW,248,6.9,6.9,79,0.00,OVC,,0.01,WeatherDisplay:10.37,2013-05-09 15:55:00,
2013-05-09 12:00:00,65.8,58.7,29.83,WSW,248,6.9,6.9,78,0.00,OVC,,0.01,WeatherDisplay:10.37,2013-05-09 16:00:00,
2013-05-09 12:05:00,66.0,58.2,29.83,West,270,8.1,8.1,76,0.00,OVC,,0.01,WeatherDisplay:10.37,2013-05-09 16:05:00,
2013-05-09 12:10:00,66.2,58.0,29.83,SW,225,7.3,7.6,75,0.00,OVC,,0.01,WeatherDisplay:10.37,2013-05-09 16:10:00,
2013-05-09 12:15:00,66.2,57.7,29.83,SW,225,6.9,6.9,74,0.00,OVC,,0.01,WeatherDisplay:10.37,2013-05-09 16:15:00,
2013-05-09 12:20:00,66.6,56.9,29.83,WSW,248,10.4,10.4,71,0.00,OVC,,0.01,WeatherDisplay:10.37,2013-05-09 16:20:00,
2013-05-09 12:25:00,68.4,59.0,29.83,West,270,7.8,7.8,72,0.00,OVC,,0.01,WeatherDisplay:10.37,2013-05-09 16:25:00,
2013-05-09 12:30:00,68.5,57.1,29.83,SSW,202,8.8,8.8,67,0.00,OVC,,0.01,WeatherDisplay:10.37,2013-05-09 16:30:00,
2013-05-09 12:35:00,67.5,57.0,29.83,SW,225,9.2,9.2,69,0.00,OVC,,0.01,WeatherDisplay:10.37,2013-05-09 16:35:00,
2013-05-09 12:40:00,69.3,57.9,29.83,SW,225,7.8,7.9,67,0.00,OVC,,0.01,WeatherDisplay:10.37,2013-05-09 16:40:00,
2013-05-09 12:45:00,69.6,57.3,29.83,WSW,248,9.2,9.2,65,0.00,OVC,,0.01,WeatherDisplay:10.37,2013-05-09 16:45:00,
2013-05-09 12:50:00,69.6,57.3,29.83,WSW,248,9.2,9.2,65,0.00,OVC,,0.01,WeatherDisplay:10.37,2013-05-09 16:50:00,
2013-05-09 12:55:00,68.9,57.1,29.83,SW,225,5.8,5.8,66,0.00,OVC,,0.01,WeatherDisplay:10.37,2013-05-09 16:55:00,
2013-05-09 13:00:00,69.3,56.6,29.83,West,270,9.2,9.2,64,0.00,OVC,,0.01,WeatherDisplay:10.37,2013-05-09 17:00:00,
2013-05-09 13:05:00,69.1,56.0,29.83,West,270,10.4,10.4,63,0.00,OVC,,0.01,WeatherDisplay:10.37,2013-05-09 17:05:00,
2013-05-09 13:10:00,70.7,57.0,29.83,SW,225,8.8,8.8,62,0.00,OVC,,0.01,WeatherDisplay:10.37,2013-05-09 17:10:00,
2013-05-09 13:15:00,72.0,56.9,29.82,SSW,202,13.8,13.8,59,0.00,OVC,,0.01,WeatherDisplay:10.37,2013-05-09 17:15:00,
2013-05-09 13:20:00,71.6,56.5,29.82,SW,225,9.2,9.2,59,0.00,OVC,,0.01,WeatherDisplay:10.37,2013-05-09 17:20:00,
2013-05-09 13:25:00,70.2,55.7,29.82,West,270,8.1,8.1,60,0.00,OVC,,0.01,WeatherDisplay:10.37,2013-05-09 17:25:00,
2013-05-09 13:30:00,70.5,56.4,29.82,West,270,9.2,9.2,61,0.00,OVC,,0.01,WeatherDisplay:10.37,2013-05-09 17:30:00,
2013-05-09 13:35:00,70.9,55.4,29.82,West,270,12.7,12.7,58,0.00,BKN,,0.01,WeatherDisplay:10.37,2013-05-09 17:35:00,
2013-05-09 13:40:00,70.9,55.4,29.82,West,270,12.7,12.7,58,0.00,BKN,,0.01,WeatherDisplay:10.37,2013-05-09 17:40:00,
2013-05-09 13:45:00,71.8,55.3,29.82,WSW,248,12.7,12.7,56,0.00,BKN,,0.01,WeatherDisplay:10.37,2013-05-09 17:45:00,
2013-05-09 13:50:00,71.6,55.6,29.82,WSW,248,10.4,10.4,57,0.00,BKN,,0.01,WeatherDisplay:10.37,2013-05-09 17:50:00,
2013-05-09 13:55:00,70.5,55.0,29.82,WSW,248,10.4,10.4,58,0.00,BKN,,0.01,WeatherDisplay:10.37,2013-05-09 17:55:00,
2013-05-09 14:00:00,72.0,56.4,29.82,SW,225,9.2,9.2,58,0.00,BKN,,0.01,WeatherDisplay:10.37,2013-05-09 18:00:00,
2013-05-09 14:05:00,72.7,55.6,29.82,NNE,22,6.3,6.3,55,0.00,BKN,,0.01,WeatherDisplay:10.37,2013-05-09 18:05:00,
2013-05-09 14:10:00,73.2,56.6,29.82,WSW,248,8.3,8.3,56,0.00,BKN,,0.01,WeatherDisplay:10.37,2013-05-09 18:10:00,
2013-05-09 14:15:00,73.2,56.1,29.82,WSW,248,11.5,11.5,55,0.00,BKN,,0.01,WeatherDisplay:10.37,2013-05-09 18:15:00,
2013-05-09 14:20:00,74.5,56.8,29.82,WSW,248,6.9,6.9,54,0.00,BKN,,0.01,WeatherDisplay:10.37,2013-05-09 18:20:00,
2013-05-09 14:25:00,73.4,54.7,29.82,West,270,11.4,11.4,52,0.00,BKN,,0.01,WeatherDisplay:10.37,2013-05-09 18:25:00,
2013-05-09 14:30:00,73.6,55.9,29.82,WSW,248,17.1,17.1,54,0.00,BKN,,0.01,WeatherDisplay:10.37,2013-05-09 18:30:00,
2013-05-09 14:35:00,73.8,56.1,29.82,WSW,248,15.0,15.0,54,0.00,BKN,,0.01,WeatherDisplay:10.37,2013-05-09 18:35:00,
2013-05-09 14:40:00,77.4,57.3,29.81,SW,225,10.4,10.4,50,0.00,BKN,,0.01,WeatherDisplay:10.37,2013-05-09 18:40:00,
2013-05-09 14:45:00,74.7,55.9,29.81,SW,225,13.8,13.8,52,0.00,BKN,,0.01,WeatherDisplay:10.37,2013-05-09 18:45:00,
2013-05-09 14:50:00,72.3,55.2,29.81,WSW,248,8.1,8.1,55,0.00,BKN,,0.01,WeatherDisplay:10.37,2013-05-09 18:50:00,
2013-05-09 14:55:00,73.6,55.4,29.81,West,270,10.4,10.4,53,0.00,BKN,,0.01,WeatherDisplay:10.37,2013-05-09 18:55:00,
2013-05-09 15:00:00,70.0,57.3,29.81,ESE,112,9.9,9.9,64,0.00,BKN,,0.01,WeatherDisplay:10.37,2013-05-09 19:00:00,
2013-05-09 15:05:00,64.6,58.3,29.82,ESE,112,11.5,11.5,80,0.03,RA,,0.05,WeatherDisplay:10.37,2013-05-09 19:05:00,
2013-05-09 15:10:00,64.4,58.4,29.82,NE,45,8.1,8.1,81,0.05,RA,,0.06,WeatherDisplay:10.37,2013-05-09 19:10:00,
2013-05-09 15:15:00,65.1,55.8,29.81,East,90,5.8,5.8,72,0.06,RA,,0.07,WeatherDisplay:10.37,2013-05-09 19:15:00,
2013-05-09 15:20:00,65.3,56.4,29.81,NE,45,5.8,5.8,73,0.06,RA,,0.07,WeatherDisplay:10.37,2013-05-09 19:20:00,
2013-05-09 15:25:00,65.8,60.2,29.81,WSW,248,3.5,3.5,82,0.06,BKN,,0.07,WeatherDisplay:10.37,2013-05-09 19:25:00,
2013-05-09 15:30:00,70.0,62.8,29.81,WSW,248,3.2,3.2,78,0.06,BKN,,0.07,WeatherDisplay:10.37,2013-05-09 19:30:00,
2013-05-09 15:35:00,70.5,61.8,29.81,West,270,2.3,2.5,74,0.06,BKN,,0.07,WeatherDisplay:10.37,2013-05-09 19:35:00,
2013-05-09 15:40:00,70.9,58.1,29.80,SW,225,3.5,3.5,64,0.06,BKN,,0.07,WeatherDisplay:10.37,2013-05-09 19:40:00,
2013-05-09 15:45:00,72.0,59.2,29.80,SW,225,2.3,2.3,64,0.06,BKN,,0.07,WeatherDisplay:10.37,2013-05-09 19:45:00,
2013-05-09 15:50:00,71.6,63.6,29.81,SW,225,3.5,3.5,76,0.06,BKN,,0.07,WeatherDisplay:10.37,2013-05-09 19:50:00,
2013-05-09 15:55:00,72.0,61.3,29.81,NNW,338,1.1,1.1,69,0.06,BKN,,0.07,WeatherDisplay:10.37,2013-05-09 19:55:00,
2013-05-09 16:00:00,72.9,60.0,29.81,WSW,248,4.2,4.2,64,0.06,BKN,,0.07,WeatherDisplay:10.37,2013-05-09 20:00:00,
2013-05-09 16:05:00,70.5,59.8,29.80,ESE,112,2.7,2.7,69,0.03,SCT,,0.07,WeatherDisplay:10.37,2013-05-09 20:05:00,
2013-05-09 16:10:00,70.5,59.4,29.80,ENE,68,2.3,2.3,68,0.01,SCT,,0.07,WeatherDisplay:10.37,2013-05-09 20:10:00,
2013-05-09 16:15:00,71.2,60.1,29.80,West,270,2.3,2.3,68,0.00,SCT,,0.07,WeatherDisplay:10.37,2013-05-09 20:15:00,
2013-05-09 16:20:00,72.0,60.0,29.80,ESE,112,1.1,1.1,66,0.00,SCT,,0.07,WeatherDisplay:10.37,2013-05-09 20:20:00,
2013-05-09 16:25:00,71.8,59.0,29.80,ENE,68,3.5,3.5,64,0.00,SCT,,0.07,WeatherDisplay:10.37,2013-05-09 20:25:00,
2013-05-09 16:30:00,73.6,60.2,29.80,WNW,292,3.2,3.2,63,0.00,SCT,,0.07,WeatherDisplay:10.37,2013-05-09 20:30:00,
2013-05-09 16:35:00,74.5,58.3,29.80,WNW,292,5.8,5.8,57,0.00,SCT,,0.07,WeatherDisplay:10.37,2013-05-09 20:35:00,
2013-05-09 16:40:00,74.7,58.9,29.79,WNW,292,9.2,9.2,58,0.00,SCT,,0.07,WeatherDisplay:10.37,2013-05-09 20:40:00,
2013-05-09 16:45:00,75.0,57.7,29.79,WSW,248,5.8,5.8,55,0.00,SCT,,0.07,WeatherDisplay:10.37,2013-05-09 20:45:00,
2013-05-09 16:50:00,78.6,54.9,29.79,WSW,248,10.4,10.4,44,0.00,SCT,,0.07,WeatherDisplay:10.37,2013-05-09 20:50:00,
2013-05-09 16:55:00,75.4,53.8,29.79,WSW,248,6.9,6.9,47,0.00,SCT,,0.07,WeatherDisplay:10.37,2013-05-09 20:55:00,
2013-05-09 17:00:00,77.0,53.4,29.79,West,270,8.3,8.3,44,0.00,SCT,,0.07,WeatherDisplay:10.37,2013-05-09 21:00:00,
2013-05-09 17:05:00,75.9,53.0,29.79,WSW,248,9.2,9.2,45,0.00,CLR,,0.07,WeatherDisplay:10.37,2013-05-09 21:05:00,
2013-05-09 17:10:00,76.5,53.6,29.79,NW,315,6.9,6.9,45,0.00,CLR,,0.07,WeatherDisplay:10.37,2013-05-09 21:10:00,
2013-05-09 17:15:00,76.3,55.7,29.78,ESE,112,5.8,5.8,49,0.00,CLR,,0.07,WeatherDisplay:10.37,2013-05-09 21:15:00,
2013-05-09 17:20:00,74.8,54.9,29.78,NW,315,4.6,4.6,50,0.00,CLR,,0.07,WeatherDisplay:10.37,2013-05-09 21:20:00,
2013-05-09 17:25:00,74.7,54.8,29.79,NNW,338,4.6,4.6,50,0.00,CLR,,0.07,WeatherDisplay:10.37,2013-05-09 21:25:00,
2013-05-09 17:30:00,76.5,55.9,29.79,West,270,3.7,3.7,49,0.00,CLR,,0.07,WeatherDisplay:10.37,2013-05-09 21:30:00,
2013-05-09 17:35:00,75.9,54.8,29.79,WSW,248,2.2,2.2,48,0.00,CLR,,0.07,WeatherDisplay:10.37,2013-05-09 21:35:00,
2013-05-09 17:40:00,77.0,53.4,29.79,SSW,202,7.8,7.8,44,0.00,CLR,,0.07,WeatherDisplay:10.37,2013-05-09 21:40:00,
2013-05-09 17:45:00,77.2,53.0,29.79,West,270,9.2,9.2,43,0.00,CLR,,0.07,WeatherDisplay:10.37,2013-05-09 21:45:00,
2013-05-09 17:50:00,76.6,52.4,29.79,ENE,68,6.9,6.9,43,0.00,CLR,,0.07,WeatherDisplay:10.37,2013-05-09 21:50:00,
2013-05-09 17:55:00,76.6,53.1,29.79,NW,315,10.4,10.4,44,0.00,CLR,,0.07,WeatherDisplay:10.37,2013-05-09 21:55:00,
2013-05-09 18:00:00,76.5,52.3,29.79,WNW,292,5.8,5.8,43,0.00,CLR,,0.07,WeatherDisplay:10.37,2013-05-09 22:00:00,
2013-05-09 18:05:00,77.0,52.1,29.79,West,270,6.9,6.9,42,0.00,FEW,,0.07,WeatherDisplay:10.37,2013-05-09 22:05:00,
2013-05-09 18:10:00,77.0,52.1,29.79,WNW,292,5.8,5.8,42,0.00,FEW,,0.07,WeatherDisplay:10.37,2013-05-09 22:10:00,
2013-05-09 18:15:00,77.5,51.9,29.78,West,270,10.4,10.4,41,0.00,FEW,,0.07,WeatherDisplay:10.37,2013-05-09 22:15:00,
2013-05-09 18:20:00,78.3,53.3,29.78,WSW,248,6.9,6.9,42,0.00,FEW,,0.07,WeatherDisplay:10.37,2013-05-09 22:20:00,
2013-05-09 18:25:00,78.6,52.3,29.78,West,270,6.9,6.9,40,0.00,FEW,,0.07,WeatherDisplay:10.37,2013-05-09 22:25:00,
2013-05-09 18:30:00,78.3,52.7,29.78,ESE,112,4.6,4.6,41,0.00,FEW,,0.07,WeatherDisplay:10.37,2013-05-09 22:30:00,
2013-05-09 18:35:00,77.5,51.9,29.78,East,90,3.7,4.0,41,0.00,FEW,,0.07,WeatherDisplay:10.37,2013-05-09 22:35:00,
2013-05-09 18:40:00,76.3,52.2,29.78,West,270,5.8,5.8,43,0.00,FEW,,0.07,WeatherDisplay:10.37,2013-05-09 22:40:00,
2013-05-09 18:45:00,75.7,52.2,29.78,West,270,4.6,4.6,44,0.00,FEW,,0.07,WeatherDisplay:10.37,2013-05-09 22:45:00,
2013-05-09 18:50:00,77.0,52.8,29.78,West,270,3.5,3.5,43,0.00,FEW,,0.07,WeatherDisplay:10.37,2013-05-09 22:50:00,
2013-05-09 18:55:00,76.8,52.0,29.78,NW,315,5.3,5.3,42,0.00,FEW,,0.07,WeatherDisplay:10.37,2013-05-09 22:55:00,
2013-05-09 19:00:00,77.2,52.3,29.78,NE,45,3.5,3.6,42,0.00,FEW,,0.07,WeatherDisplay:10.37,2013-05-09 23:00:00,
2013-05-09 19:05:00,76.3,52.2,29.78,North,360,4.6,4.6,43,0.00,FEW,,0.07,WeatherDisplay:10.37,2013-05-09 23:05:00,
2013-05-09 19:10:00,77.7,52.1,29.78,NNE,22,5.8,5.8,41,0.00,FEW,,0.07,WeatherDisplay:10.37,2013-05-09 23:10:00,
2013-05-09 19:15:00,77.5,52.6,29.78,West,270,2.7,2.7,42,0.00,FEW,,0.07,WeatherDisplay:10.37,2013-05-09 23:15:00,
2013-05-09 19:20:00,76.8,51.3,29.78,WNW,292,4.6,4.6,41,0.00,FEW,,0.07,WeatherDisplay:10.37,2013-05-09 23:20:00,
2013-05-09 19:25:00,75.0,51.6,29.78,West,270,2.3,2.3,44,0.00,FEW,,0.07,WeatherDisplay:10.37,2013-05-09 23:25:00,
2013-05-09 19:30:00,75.7,54.0,29.78,SW,225,2.3,2.3,47,0.00,FEW,,0.07,WeatherDisplay:10.37,2013-05-09 23:30:00,
2013-05-09 19:35:00,75.6,52.8,29.78,SW,225,2.3,2.3,45,0.00,FEW,,0.07,WeatherDisplay:10.37,2013-05-09 23:35:00,
2013-05-09 19:40:00,75.4,52.6,29.79,WSW,248,2.3,2.3,45,0.00,FEW,,0.07,WeatherDisplay:10.37,2013-05-09 23:40:00,
2013-05-09 19:45:00,73.9,51.2,29.79,West,270,8.1,8.1,45,0.00,FEW,,0.07,WeatherDisplay:10.37,2013-05-09 23:45:00,
2013-05-09 19:50:00,73.4,50.2,29.80,WSW,248,5.8,5.8,44,0.00,FEW,,0.07,WeatherDisplay:10.37,2013-05-09 23:50:00,
2013-05-09 19:55:00,73.0,51.0,29.80,West,270,3.5,3.5,46,0.00,FEW,,0.07,WeatherDisplay:10.37,2013-05-09 23:55:00,
2013-05-09 20:00:00,72.7,49.5,29.80,West,270,3.5,3.5,44,0.00,FEW,,0.07,WeatherDisplay:10.37,2013-05-10 00:00:00,
2013-05-09 20:05:00,72.1,49.0,29.80,West,270,3.7,3.7,44,0.00,FEW,,0.07,WeatherDisplay:10.37,2013-05-10 00:05:00,
2013-05-09 20:10:00,72.3,48.5,29.80,WNW,292,2.3,2.3,43,0.00,FEW,,0.07,WeatherDisplay:10.37,2013-05-10 00:10:00,
2013-05-09 20:15:00,72.3,48.5,29.81,ENE,68,3.5,3.5,43,0.00,FEW,,0.07,WeatherDisplay:10.37,2013-05-10 00:15:00,
2013-05-09 20:20:00,72.0,51.8,29.81,WSW,248,3.5,3.5,49,0.00,FEW,,0.07,WeatherDisplay:10.37,2013-05-10 00:20:00,
2013-05-09 20:25:00,71.1,52.6,29.81,SW,225,3.5,3.5,52,0.00,FEW,,0.07,WeatherDisplay:10.37,2013-05-10 00:25:00,
2013-05-09 20:30:00,69.8,49.8,29.81,West,270,3.5,3.5,49,0.00,FEW,,0.07,WeatherDisplay:10.37,2013-05-10 00:30:00,
2013-05-09 20:35:00,69.6,49.0,29.81,West,270,2.3,2.3,48,0.00,CLR,,0.07,WeatherDisplay:10.37,2013-05-10 00:35:00,
2013-05-09 20:40:00,69.6,49.0,29.82,SW,225,0.0,0.0,48,0.00,CLR,,0.07,WeatherDisplay:10.37,2013-05-10 00:40:00,
2013-05-09 20:45:00,69.3,49.9,29.82,SW,225,0.0,0.0,50,0.00,CLR,,0.07,WeatherDisplay:10.37,2013-05-10 00:45:00,
2013-05-09 20:50:00,68.7,49.3,29.82,SW,225,0.0,0.0,50,0.00,CLR,,0.07,WeatherDisplay:10.37,2013-05-10 00:50:00,
2013-05-09 20:55:00,68.2,50.4,29.82,SW,225,0.0,0.0,53,0.00,CLR,,0.07,WeatherDisplay:10.37,2013-05-10 00:55:00,
2013-05-09 21:00:00,67.6,49.3,29.82,SW,225,0.0,0.0,52,0.00,CLR,,0.07,WeatherDisplay:10.37,2013-05-10 01:00:00,
2013-05-09 21:05:00,67.3,49.6,29.82,SW,225,1.7,1.7,53,0.00,FEW,,0.07,WeatherDisplay:10.37,2013-05-10 01:05:00,
2013-05-09 21:10:00,65.7,51.4,29.82,WSW,248,3.7,3.7,60,0.00,FEW,,0.07,WeatherDisplay:10.37,2013-05-10 01:10:00,
2013-05-09 21:15:00,65.7,50.5,29.83,WSW,248,3.5,3.5,58,0.00,FEW,,0.07,WeatherDisplay:10.37,2013-05-10 01:15:00,
2013-05-09 21:20:00,65.3,51.5,29.83,SW,225,2.3,2.3,61,0.00,FEW,,0.07,WeatherDisplay:10.37,2013-05-10 01:20:00,
2013-05-09 21:25:00,64.0,51.1,29.83,SW,225,4.6,4.6,63,0.00,FEW,,0.07,WeatherDisplay:10.37,2013-05-10 01:25:00,
2013-05-09 21:30:00,65.1,50.4,29.83,WSW,248,4.6,4.6,59,0.00,FEW,,0.07,WeatherDisplay:10.37,2013-05-10 01:30:00,
2013-05-09 21:35:00,65.5,50.3,29.83,SW,225,4.6,4.6,58,0.00,FEW,,0.07,WeatherDisplay:10.37,2013-05-10 01:35:00,
2013-05-09 21:40:00,65.1,50.9,29.83,SW,225,4.6,4.6,60,0.00,FEW,,0.07,WeatherDisplay:10.37,2013-05-10 01:40:00,
2013-05-09 21:45:00,66.2,51.0,29.83,SW,225,4.6,4.6,58,0.00,FEW,,0.07,WeatherDisplay:10.37,2013-05-10 01:45:00,
2013-05-09 21:50:00,65.7,51.0,29.83,WSW,248,3.5,3.5,59,0.00,FEW,,0.07,WeatherDisplay:10.37,2013-05-10 01:50:00,
2013-05-09 21:55:00,65.5,50.8,29.83,SW,225,2.3,2.3,59,0.00,FEW,,0.07,WeatherDisplay:10.37,2013-05-10 01:55:00,
2013-05-09 22:00:00,65.5,50.8,29.83,SW,225,2.3,2.3,59,0.00,FEW,,0.07,WeatherDisplay:10.37,2013-05-10 02:00:00,
2013-05-09 22:05:00,65.3,50.6,29.83,SW,225,2.3,2.3,59,0.00,FEW,,0.07,WeatherDisplay:10.37,2013-05-10 02:05:00,
2013-05-09 22:10:00,64.9,50.7,29.83,SW,225,1.1,1.1,60,0.00,FEW,,0.07,WeatherDisplay:10.37,2013-05-10 02:10:00,
2013-05-09 22:15:00,64.6,50.4,29.83,SW,225,0.0,0.0,60,0.00,FEW,,0.07,WeatherDisplay:10.37,2013-05-10 02:15:00,
2013-05-09 22:20:00,64.2,50.0,29.83,WSW,248,0.0,0.0,60,0.00,FEW,,0.07,WeatherDisplay:10.37,2013-05-10 02:20:00,
2013-05-09 22:25:00,64.0,50.3,29.83,SW,225,0.0,0.0,61,0.00,FEW,,0.07,WeatherDisplay:10.37,2013-05-10 02:25:00,
2013-05-09 22:30:00,63.1,51.1,29.83,SW,225,0.0,0.0,65,0.00,FEW,,0.07,WeatherDisplay:10.37,2013-05-10 02:30:00,
2013-05-09 22:35:00,62.6,51.5,29.83,SW,225,0.0,0.0,67,0.00,CLR,,0.07,WeatherDisplay:10.37,2013-05-10 02:35:00,
2013-05-09 22:40:00,62.1,51.0,29.83,SW,225,2.3,2.3,67,0.00,CLR,,0.07,WeatherDisplay:10.37,2013-05-10 02:40:00,
2013-05-09 22:45:00,62.1,51.0,29.83,SW,225,1.1,1.6,67,0.00,CLR,,0.07,WeatherDisplay:10.37,2013-05-10 02:45:00,
2013-05-09 22:50:00,62.1,51.0,29.83,South,180,2.3,2.3,67,0.00,CLR,,0.07,WeatherDisplay:10.37,2013-05-10 02:50:00,
2013-05-09 22:55:00,62.1,51.0,29.83,SW,225,2.2,2.2,67,0.00,CLR,,0.07,WeatherDisplay:10.37,2013-05-10 02:55:00,
2013-05-09 23:00:00,62.8,51.3,29.83,SW,225,2.7,2.7,66,0.00,CLR,,0.07,WeatherDisplay:10.37,2013-05-10 03:00:00,
2013-05-09 23:05:00,61.9,52.0,29.83,WSW,248,2.3,2.3,70,0.00,CLR,,0.07,WeatherDisplay:10.37,2013-05-10 03:05:00,
2013-05-09 23:10:00,61.3,51.4,29.83,South,180,0.0,0.0,70,0.00,CLR,,0.07,WeatherDisplay:10.37,2013-05-10 03:10:00,
2013-05-09 23:15:00,61.3,51.4,29.83,SW,225,2.3,2.3,70,0.00,CLR,,0.07,WeatherDisplay:10.37,2013-05-10 03:15:00,
2013-05-09 23:20:00,61.3,51.4,29.83,SW,225,2.3,2.3,70,0.00,CLR,,0.07,WeatherDisplay:10.37,2013-05-10 03:20:00,
2013-05-09 23:25:00,61.3,51.4,29.84,WSW,248,2.3,2.5,70,0.00,CLR,,0.07,WeatherDisplay:10.37,2013-05-10 03:25:00,
2013-05-09 23:30:00,61.5,51.6,29.84,SW,225,1.1,1.1,70,0.00,CLR,,0.07,WeatherDisplay:10.37,2013-05-10 03:30:00,
2013-05-09 23:35:00,61.2,51.7,29.84,SSW,202,1.7,1.7,71,0.00,CLR,,0.07,WeatherDisplay:10.37,2013-05-10 03:35:00,
2013-05-09 23:40:00,61.3,51.8,29.84,SW,225,1.1,0.0,71,0.00,CLR,,0.07,WeatherDisplay:10.37,2013-05-10 03:40:00,
2013-05-09 23:45:00,61.2,51.7,29.84,SSW,202,1.7,1.7,71,0.00,CLR,,0.07,WeatherDisplay:10.37,2013-05-10 03:45:00,
2013-05-09 23:50:00,61.0,51.9,29.84,SW,225,0.0,0.0,72,0.00,CLR,,0.07,WeatherDisplay:10.37,2013-05-10 03:50:00,
2013-05-09 23:55:00,60.6,51.9,29.84,SW,225,0.0,0.0,73,0.00,CLR,,0.07,WeatherDisplay:10.37,2013-05-10 03:55:00,